Home > Products > Valid Products > TAF

000
FTUS43 KILX 182300
TAFCMI
TAF
KCMI 182320Z 1900/1924 06008KT P6SM SKC
     FM191600 13010KT P6SM SKC=



000
FTUS43 KILX 182300
TAFDEC
TAF
KDEC 182320Z 1900/1924 07008KT P6SM SKC
     FM191600 13009KT P6SM SKC=



000
FTUS43 KILX 182300
TAFSPI
TAF
KSPI 182320Z 1900/1924 07008KT P6SM SKC
     FM191600 14009KT P6SM SKC=



000
FTUS43 KILX 182300
TAFBMI
TAF
KBMI 182320Z 1900/1924 07009KT P6SM SKC
     FM191600 14010KT P6SM SKC=



000
FTUS43 KILX 182300
TAFPIA
TAF
KPIA 182320Z 1900/1924 07009KT P6SM SKC
     FM191600 15010KT P6SM SKC=



000
FTUS43 KILX 181700
TAFDEC
TAF
KDEC 181722Z 1818/1918 02006KT P6SM SCT045
     FM190100 06007KT P6SM SKC
     FM191500 11008KT P6SM SKC=



000
FTUS43 KILX 181700
TAFSPI
TAF
KSPI 181722Z 1818/1918 03005KT P6SM SKC
     FM190000 07007KT P6SM SKC
     FM191400 12008KT P6SM SKC=



000
FTUS43 KILX 181700
TAFPIA
TAF
KPIA 181722Z 1818/1918 03006KT P6SM SKC
     FM190000 07007KT P6SM SKC
     FM191300 11008KT P6SM SKC=



000
FTUS43 KILX 181700
TAFBMI
TAF
KBMI 181722Z 1818/1918 02007KT P6SM SKC
     FM190100 05008KT P6SM SKC
     FM191300 11008KT P6SM SKC=



000
FTUS43 KILX 181700
TAFCMI
TAF
KCMI 181722Z 1818/1918 01007KT P6SM SCT040
     FM190100 05008KT P6SM SKC
     FM191500 10008KT P6SM SKC=



000
FTUS43 KILX 181100
TAFPIA
TAF
KPIA 181139Z 1812/1912 03006KT P6SM SKC
     FM190000 07007KT P6SM SKC=



000
FTUS43 KILX 181100
TAFCMI
TAF
KCMI 181139Z 1812/1912 36007KT P6SM BKN080
     FM181600 01007KT P6SM SCT040
     FM190100 05008KT P6SM SKC=



000
FTUS43 KILX 181100
TAFSPI
TAF
KSPI 181139Z 1812/1912 03005KT P6SM SKC
     FM190000 07007KT P6SM SKC=



000
FTUS43 KILX 181100
TAFDEC
TAF
KDEC 181139Z 1812/1912 02005KT P6SM SKC
     FM181600 03006KT P6SM SCT045
     FM190100 06007KT P6SM SKC=



000
FTUS43 KILX 181100
TAFBMI
TAF
KBMI 181139Z 1812/1912 02007KT P6SM SKC
     FM190100 05008KT P6SM SKC=



000
FTUS43 KILX 180500
TAFCMI
TAF
KCMI 180532Z 1806/1906 VRB04KT P6SM BKN100
     FM181400 VRB05KT P6SM SKC=



000
FTUS43 KILX 180500
TAFBMI
TAF
KBMI 180532Z 1806/1906 VRB05KT P6SM BKN100
     FM181300 VRB06KT P6SM SKC=



000
FTUS43 KILX 180500
TAFSPI
TAF
KSPI 180532Z 1806/1906 VRB04KT P6SM BKN100
     FM181300 VRB05KT P6SM SKC=



000
FTUS43 KILX 180500
TAFPIA
TAF
KPIA 180532Z 1806/1906 VRB03KT P6SM BKN100
     FM181100 VRB05KT P6SM SKC=



000
FTUS43 KILX 180500
TAFDEC
TAF
KDEC 180532Z 1806/1906 VRB04KT P6SM BKN100
     FM181300 VRB05KT P6SM SKC=



000
FTUS43 KILX 172300 RRA
TAFDEC
TAF
KDEC 172341Z 1800/1824 VRB06KT P6SM BKN100
     FM180500 33004KT P6SM BKN080
     FM180900 35004KT P6SM BKN120
     FM181300 VRB05KT P6SM SKC=



000
FTUS43 KILX 172300 RRA
TAFSPI
TAF
KSPI 172341Z 1800/1824 VRB05KT P6SM BKN100
     FM180400 33005KT P6SM BKN080
     FM180800 32003KT P6SM BKN120
     FM181300 VRB05KT P6SM SKC=



000
FTUS43 KILX 172300 RRA
TAFPIA
TAF
KPIA 172341Z 1800/1824 VRB05KT P6SM BKN080
     FM180400 30004KT P6SM BKN120
     FM181000 35004KT P6SM SKC
     FM181700 VRB05KT P6SM SKC=



000
FTUS43 KILX 172300 RRA
TAFCMI
TAF
KCMI 172341Z 1800/1824 VRB06KT P6SM BKN100
     FM180600 34004KT P6SM BKN080
     FM181000 35004KT P6SM BKN120
     FM181400 VRB05KT P6SM SKC=



000
FTUS43 KILX 172300 RRA
TAFBMI
TAF
KBMI 172341Z 1800/1824 24008KT P6SM BKN100
     FM180400 32005KT P6SM BKN080
     FM180800 32004KT P6SM BKN120
     FM181300 VRB06KT P6SM SKC=



000
FTUS43 KILX 171900 AAA
TAFPIA
TAF AMD
KPIA 171944Z 1720/1818 25008KT P6SM BKN200
     FM180200 VRB03KT P6SM -SHRA OVC050
     FM180600 01004KT P6SM BKN040
     FM181300 04004KT P6SM SKC=



000
FTUS43 KILX 171700 RRA
TAFSPI
TAF
KSPI 171743Z 1718/1818 25009KT P6SM BKN200
     FM180200 33003KT P6SM -SHRA SCT050 BKN100
     FM180900 01004KT P6SM BKN040
     FM181300 04005KT P6SM SKC=



000
FTUS43 KILX 171700 RRA
TAFDEC
TAF
KDEC 171743Z 1718/1818 23011KT P6SM SCT050 BKN200
     FM180300 VRB04KT P6SM -SHRA SCT050 BKN100
     FM180600 VRB04KT P6SM -SHRA OVC050
     FM180900 VRB04KT P6SM BKN050
     FM181500 04005KT P6SM SKC=



000
FTUS43 KILX 171700 RRA
TAFBMI
TAF
KBMI 171743Z 1718/1818 25012KT P6SM SCT040 BKN200
     FM172200 26010KT P6SM BKN070
     FM180200 VRB04KT P6SM -SHRA OVC050
     FM180800 01004KT P6SM BKN040
     FM181300 05006KT P6SM SKC=



000
FTUS43 KILX 171700 RRA
TAFCMI
TAF
KCMI 171743Z 1718/1818 22014KT P6SM BKN200
     FM180000 VRB05KT P6SM BKN100
     FM180500 01005KT P6SM -SHRA OVC060
     FM180900 VRB04KT P6SM BKN050
     FM181500 04005KT P6SM SKC=



000
FTUS43 KILX 171700 RRA
TAFPIA
TAF
KPIA 171743Z 1718/1818 26008KT P6SM SCT020 BKN200
      TEMPO 1718/1720 BKN020
     FM172000 29005KT P6SM OVC070
     FM180200 VRB03KT P6SM -SHRA OVC050
     FM180600 01004KT P6SM BKN040
     FM181300 04004KT P6SM SKC=



000
FTUS43 KILX 171100
TAFCMI
TAF
KCMI 171129Z 1712/1812 17009KT P6SM BKN250
     FM171500 22014KT P6SM BKN150
     FM180000 VRB05KT P6SM BKN100
     FM180800 01005KT P6SM OVC060 PROB30 1808/1812 -SHRA=



000
FTUS43 KILX 171100
TAFBMI
TAF
KBMI 171129Z 1712/1812 19013KT P6SM BKN250
     FM171400 23012KT P6SM SCT040 BKN200
     FM172200 26010KT P6SM BKN070
     FM180200 VRB04KT P6SM OVC050=



000
FTUS43 KILX 171100
TAFSPI
TAF
KSPI 171129Z 1712/1812 20008KT P6SM BKN250
     FM171500 25009KT P6SM BKN150
     FM180200 33003KT P6SM BKN100
     FM180600 01004KT P6SM OVC050 PROB30 1806/1810 -SHRA=



000
FTUS43 KILX 171100
TAFDEC
TAF
KDEC 171129Z 1712/1812 19010KT P6SM BKN250
     FM171500 23011KT P6SM SCT050 BKN150
     FM180000 VRB04KT P6SM BKN100
     FM180600 VRB04KT P6SM OVC050 PROB30 1807/1811 -SHRA=



000
FTUS43 KILX 171100
TAFPIA
TAF
KPIA 171129Z 1712/1812 19006KT P6SM BKN250
     FM171400 26008KT P6SM SCT020 BKN200
     FM172000 29005KT P6SM OVC070
     FM180200 VRB03KT P6SM OVC050=



000
FTUS43 KILX 170800 AAA
TAFBMI
TAF AMD
KBMI 170850Z 1709/1806 18013KT P6SM SCT120 BKN250 WS020/21045KT
     FM171500 23012KT P6SM SCT040 OVC120
     FM172200 26009KT P6SM OVC070
     FM180200 VRB04KT P6SM OVC050=



000
FTUS43 KILX 170800 AAA
TAFDEC
TAF AMD
KDEC 170850Z 1709/1806 17008KT P6SM BKN250 WS020/20040KT
     FM171500 22011KT P6SM SCT040 OVC150
     FM172200 25008KT P6SM OVC080
     FM180300 VRB04KT P6SM OVC050=



000
FTUS43 KILX 170800 AAA
TAFSPI
TAF AMD
KSPI 170850Z 1709/1806 18011KT P6SM BKN250 WS020/21045KT
     FM171500 24010KT P6SM SCT040 OVC150
     FM172100 27006KT P6SM OVC080
     FM180200 VRB03KT P6SM OVC050=



000
FTUS43 KILX 170800 AAA
TAFCMI
TAF AMD
KCMI 170850Z 1709/1806 15009KT P6SM BKN250 WS020/20040KT
     FM171500 22014KT P6SM BKN180
     FM172200 24008KT P6SM SCT040 OVC120
     FM180300 VRB04KT P6SM OVC060=



000
FTUS43 KILX 170800 AAA
TAFPIA
TAF AMD
KPIA 170850Z 1709/1806 18010KT P6SM SCT120 BKN250 WS020/21045KT
     FM171400 25009KT P6SM SCT040 OVC120
     FM172000 25007KT P6SM OVC070
     FM180200 VRB03KT P6SM OVC050=



000
FTUS43 KILX 170500
TAFPIA
TAF
KPIA 170520Z 1706/1806 17012KT P6SM SCT120 BKN250
     FM171400 25009KT P6SM SCT040 OVC120
     FM172000 25007KT P6SM OVC070
     FM180200 VRB03KT P6SM OVC050=



000
FTUS43 KILX 170500
TAFDEC
TAF
KDEC 170520Z 1706/1806 17008KT P6SM BKN250
     FM171500 22011KT P6SM SCT040 OVC150
     FM172200 25008KT P6SM OVC080
     FM180300 VRB04KT P6SM OVC050=



000
FTUS43 KILX 170500
TAFCMI
TAF
KCMI 170520Z 1706/1806 15009KT P6SM BKN250
     FM171500 22014KT P6SM BKN180
     FM172200 24008KT P6SM SCT040 OVC120
     FM180300 VRB04KT P6SM OVC060=



000
FTUS43 KILX 170500
TAFBMI
TAF
KBMI 170520Z 1706/1806 17013KT P6SM SCT120 BKN250
     FM171500 23012KT P6SM SCT040 OVC120
     FM172200 26009KT P6SM OVC070
     FM180200 VRB04KT P6SM OVC050=



000
FTUS43 KILX 170500
TAFSPI
TAF
KSPI 170520Z 1706/1806 17012KT P6SM BKN250
     FM171500 24010KT P6SM SCT040 OVC150
     FM172100 27006KT P6SM OVC080
     FM180200 VRB03KT P6SM OVC050=



000
FTUS43 KILX 162300
TAFCMI
TAF
KCMI 162333Z 1700/1724 16017G25KT P6SM BKN250
     FM170100 15010KT P6SM BKN250
     FM171500 21014KT P6SM BKN250
     FM172200 23008KT P6SM SCT040 OVC150=



000
FTUS43 KILX 162300
TAFBMI
TAF
KBMI 162333Z 1700/1724 16020G27KT P6SM SCT150
     FM170100 16015KT P6SM SCT120 BKN250
     FM170700 16010KT P6SM BKN250
     FM171600 23012KT P6SM SCT040 OVC100
     FM172100 26008KT P6SM OVC050=



000
FTUS43 KILX 162300
TAFPIA
TAF
KPIA 162333Z 1700/1724 17018G26KT P6SM SCT150
     FM170100 16011KT P6SM SCT120 BKN250
     FM170700 18008KT P6SM BKN090
     FM171400 25010KT P6SM SCT030 OVC070
     FM171900 24008KT P6SM OVC050=



000
FTUS43 KILX 162300
TAFSPI
TAF
KSPI 162333Z 1700/1724 16020G27KT P6SM BKN250
     FM170100 16012KT P6SM BKN250
     FM171600 23010KT P6SM SCT040 OVC150
     FM172100 26008KT P6SM OVC060=



000
FTUS43 KILX 162300
TAFDEC
TAF
KDEC 162333Z 1700/1724 16017G25KT P6SM BKN250
     FM170100 16009KT P6SM BKN250
     FM171700 23010KT P6SM SCT040 OVC150
     FM172200 25007KT P6SM OVC060=



000
FTUS43 KILX 161700
TAFCMI
TAF
KCMI 161734Z 1618/1718 16023G30KT P6SM SCT150
     FM170100 16013KT P6SM SCT250
     FM170400 17008KT P6SM SCT120
     FM171000 17008KT P6SM BKN070
     FM171500 24012KT P6SM BKN050=



000
FTUS43 KILX 161700
TAFBMI
TAF
KBMI 161734Z 1618/1718 17024G32KT P6SM SCT150
     FM170100 16017KT P6SM SCT150
     FM170400 17010KT P6SM SCT070
     FM171000 19014KT P6SM BKN070
     FM171500 25012KT P6SM BKN050=



000
FTUS43 KILX 161700
TAFDEC
TAF
KDEC 161734Z 1618/1718 17021G30KT P6SM SCT150
     FM170100 16013KT P6SM SCT150
     FM170400 17008KT P6SM SCT100
     FM171000 18009KT P6SM BKN070
     FM171500 25008KT P6SM BKN050=



000
FTUS43 KILX 161700
TAFPIA
TAF
KPIA 161734Z 1618/1718 17022G30KT P6SM SCT150
     FM170100 17013KT P6SM SCT150
     FM170300 17008KT P6SM SCT070
     FM171000 21007KT P6SM BKN070
     FM171400 27008KT P6SM BKN050=



000
FTUS43 KILX 161700
TAFSPI
TAF
KSPI 161734Z 1618/1718 17022G30KT P6SM SCT150
     FM170200 16013KT P6SM SCT250
     FM170300 17008KT P6SM SCT100
     FM171000 19009KT P6SM BKN070
     FM171400 27008KT P6SM BKN050=



000
FTUS43 KILX 161100
TAFSPI
TAF
KSPI 161122Z 1612/1712 16013KT P6SM SCT250
     FM161400 17022G30KT P6SM SCT150
     FM170200 16013KT P6SM SCT250
     FM171000 19009KT P6SM BKN070=



000
FTUS43 KILX 161100
TAFDEC
TAF
KDEC 161122Z 1612/1712 16011KT P6SM SCT250
     FM161400 17021G30KT P6SM SCT150
     FM170100 16013KT P6SM SCT250=



000
FTUS43 KILX 161100
TAFCMI
TAF
KCMI 161122Z 1612/1712 15012KT P6SM SCT250
     FM161400 16023G30KT P6SM SCT150
     FM170100 16013KT P6SM SCT250=



000
FTUS43 KILX 161100
TAFPIA
TAF
KPIA 161122Z 1612/1712 15010KT P6SM SCT250
     FM161400 17022G30KT P6SM SCT150
     FM170100 17013KT P6SM SCT150
     FM171000 21007KT P6SM BKN070=



000
FTUS43 KILX 161100
TAFBMI
TAF
KBMI 161122Z 1612/1712 16014KT P6SM SCT250
     FM161400 17024G32KT P6SM SCT150
     FM170100 16017KT P6SM SCT150
     FM171000 19014KT P6SM BKN070=



000
FTUS43 KILX 160500
TAFPIA
TAF
KPIA 160520Z 1606/1706 15005KT P6SM SKC
     FM160900 15010KT P6SM SCT250
     FM161400 17022G30KT P6SM SCT150
     FM170100 17013KT P6SM SCT150=



000
FTUS43 KILX 160500
TAFSPI
TAF
KSPI 160520Z 1606/1706 15005KT P6SM SKC
     FM160900 15010KT P6SM SCT250
     FM161400 17022G30KT P6SM SCT150
     FM170100 16013KT P6SM SCT250=



000
FTUS43 KILX 160500
TAFBMI
TAF
KBMI 160520Z 1606/1706 15006KT P6SM SKC
     FM160900 15012KT P6SM SCT250
     FM161400 17024G32KT P6SM SCT150
     FM170100 16015KT P6SM SCT150=



000
FTUS43 KILX 160500
TAFDEC
TAF
KDEC 160520Z 1606/1706 15005KT P6SM SKC
     FM161000 15010KT P6SM SCT250
     FM161400 17021G30KT P6SM SCT150
     FM170100 16013KT P6SM SCT250=



000
FTUS43 KILX 160500
TAFCMI
TAF
KCMI 160520Z 1606/1706 15005KT P6SM SKC
     FM161000 15012KT P6SM SCT250
     FM161400 17023G30KT P6SM SCT150
     FM170100 16013KT P6SM SCT250=



    US Dept of Commerce
    National Oceanic and Atmospheric Administration
    National Weather Service
    1325 East West Highway
    Silver Spring, MD 20910
    Page Author: NWS Internet Services Team
Disclaimer
Information Quality
Credits
Glossary
Privacy Policy
Freedom of Information Act (FOIA)
About Us
Career Opportunities